createdAt,value
2022-08-07T00:01:44.121Z,26.50
2022-08-07T00:04:06.821Z,26.40
2022-08-07T00:06:36.817Z,26.40
2022-08-07T00:09:16.450Z,26.40
2022-08-07T00:11:54.169Z,26.40
2022-08-07T00:14:25.502Z,26.30
2022-08-07T00:16:58.534Z,26.30
2022-08-07T00:19:26.138Z,26.30
2022-08-07T00:22:02.298Z,26.20
2022-08-07T00:24:31.756Z,26.20
2022-08-07T00:27:06.259Z,26.20
2022-08-07T00:29:33.695Z,26.10
2022-08-07T00:32:06.743Z,26.10
2022-08-07T00:34:35.464Z,26.10
2022-08-07T00:37:05.147Z,26.10
2022-08-07T00:39:33.801Z,26.00
2022-08-07T00:42:05.292Z,26.00
2022-08-07T00:44:34.160Z,26.00
2022-08-07T00:47:16.050Z,26.00
2022-08-07T00:50:19.825Z,25.90
2022-08-07T00:52:41.205Z,25.90
2022-08-07T00:55:10.560Z,25.90
2022-08-07T00:57:38.315Z,25.80
2022-08-07T01:00:23.118Z,25.80
2022-08-07T01:02:50.901Z,25.80
2022-08-07T01:05:20.023Z,25.80
2022-08-07T01:07:51.902Z,25.80
2022-08-07T01:10:19.975Z,25.80
2022-08-07T01:12:53.873Z,25.80
2022-08-07T01:16:01.306Z,25.80
2022-08-07T01:18:17.202Z,25.70
2022-08-07T01:21:17.484Z,25.70
2022-08-07T01:23:52.218Z,25.60
2022-08-07T01:26:20.844Z,25.60
2022-08-07T01:28:51.215Z,25.60
2022-08-07T01:31:41.867Z,25.50
2022-08-07T01:34:14.109Z,25.50
2022-08-07T01:36:44.066Z,25.50
2022-08-07T01:39:18.654Z,25.50
2022-08-07T01:42:36.871Z,25.40
2022-08-07T01:44:50.622Z,25.50
2022-08-07T01:48:17.678Z,25.50
2022-08-07T01:50:06.151Z,25.40
2022-08-07T01:52:36.481Z,25.40
2022-08-07T01:55:05.085Z,25.30
2022-08-07T01:58:06.195Z,25.30
2022-08-07T02:00:30.798Z,25.30
2022-08-07T02:03:19.081Z,25.30
2022-08-07T02:06:00.061Z,25.30
2022-08-07T02:08:37.948Z,25.20
2022-08-07T02:14:00.799Z,25.20
2022-08-07T02:16:33.367Z,25.10
2022-08-07T02:20:03.495Z,25.10
2022-08-07T02:21:58.562Z,25.00
2022-08-07T02:24:29.322Z,25.00
2022-08-07T02:27:01.254Z,25.00
2022-08-07T02:29:31.902Z,24.90
2022-08-07T02:32:02.184Z,24.90
2022-08-07T02:34:32.863Z,24.90
2022-08-07T02:37:08.182Z,24.90
2022-08-07T02:39:42.992Z,24.80
2022-08-07T02:42:16.901Z,24.80
2022-08-07T02:44:50.113Z,24.80
2022-08-07T02:47:45.225Z,24.70
2022-08-07T02:50:14.699Z,24.70
2022-08-07T02:52:47.888Z,24.70
2022-08-07T02:55:28.462Z,24.60
2022-08-07T02:58:13.667Z,24.70
2022-08-07T03:00:47.416Z,24.60
2022-08-07T03:03:21.219Z,24.60
2022-08-07T03:05:53.774Z,24.60
2022-08-07T03:08:26.713Z,24.60
2022-08-07T03:10:59.418Z,24.60
2022-08-07T03:13:38.914Z,24.50
2022-08-07T03:16:09.548Z,24.60
2022-08-07T03:18:38.310Z,24.50
2022-08-07T03:21:08.572Z,24.50
2022-08-07T03:24:17.433Z,24.50
2022-08-07T03:26:33.756Z,24.50
2022-08-07T03:29:11.059Z,24.40
2022-08-07T03:31:43.409Z,24.40
2022-08-07T03:34:22.609Z,24.40
2022-08-07T03:36:57.399Z,24.40
2022-08-07T03:39:59.095Z,24.40
2022-08-07T03:42:21.914Z,24.40
2022-08-07T03:44:57.808Z,24.30
2022-08-07T03:47:45.096Z,24.30
2022-08-07T03:50:23.172Z,24.30
2022-08-07T03:52:53.994Z,24.30
2022-08-07T03:55:22.645Z,24.20
2022-08-07T03:59:05.195Z,24.20
2022-08-07T04:00:46.251Z,24.20
2022-08-07T04:03:21.091Z,24.40
2022-08-07T04:05:50.875Z,24.20
2022-08-07T04:08:22.166Z,24.10
2022-08-07T04:10:54.304Z,24.20
2022-08-07T04:14:33.243Z,24.10
2022-08-07T04:16:38.096Z,24.10
2022-08-07T04:19:14.790Z,24.10
2022-08-07T04:21:47.928Z,24.10
2022-08-07T04:24:34.195Z,24.10
2022-08-07T04:27:20.500Z,24.10
2022-08-07T04:30:02.126Z,24.10
2022-08-07T04:32:59.682Z,24.10
2022-08-07T04:35:35.313Z,24.10
2022-08-07T04:38:09.285Z,24.10
2022-08-07T04:40:52.203Z,24.10
2022-08-07T04:44:12.023Z,24.00
2022-08-07T04:47:03.765Z,24.10
2022-08-07T04:50:04.839Z,24.10
2022-08-07T04:52:52.014Z,24.10
2022-08-07T04:58:10.639Z,24.10
2022-08-07T05:02:16.710Z,24.20
2022-08-07T05:05:12.012Z,24.20
2022-08-07T05:08:00.462Z,24.10
2022-08-07T05:10:35.274Z,24.10
2022-08-07T05:14:44.541Z,24.20
2022-08-07T05:15:56.682Z,24.20
2022-08-07T05:18:29.832Z,24.20
2022-08-07T05:21:12.031Z,24.30
2022-08-07T05:23:44.259Z,24.30
2022-08-07T05:26:24.250Z,24.30
2022-08-07T05:29:00.437Z,24.30
2022-08-07T05:31:38.854Z,24.30
2022-08-07T05:34:15.674Z,24.30
2022-08-07T05:36:49.211Z,24.30
2022-08-07T05:40:16.622Z,24.30
2022-08-07T05:42:34.463Z,24.30
2022-08-07T05:45:25.930Z,24.30
2022-08-07T05:48:02.591Z,24.30
2022-08-07T05:50:50.710Z,24.40
2022-08-07T05:54:09.385Z,24.30
2022-08-07T05:56:10.014Z,24.40
2022-08-07T05:58:52.472Z,24.40
2022-08-07T06:01:25.209Z,24.40
2022-08-07T06:03:58.939Z,24.40
2022-08-07T06:06:35.135Z,24.40
2022-08-07T06:09:09.172Z,24.50
2022-08-07T06:11:47.347Z,24.60
2022-08-07T06:14:20.760Z,24.60
2022-08-07T06:16:56.252Z,24.60
2022-08-07T06:19:49.981Z,24.60
2022-08-07T06:22:23.562Z,24.70
2022-08-07T06:25:02.885Z,24.70
2022-08-07T06:27:59.785Z,24.70
2022-08-07T06:30:32.048Z,24.80
2022-08-07T06:33:15.731Z,24.80
2022-08-07T06:35:47.682Z,24.80
2022-08-07T06:38:20.475Z,24.80
2022-08-07T06:40:53.687Z,24.80
2022-08-07T06:43:24.948Z,24.80
2022-08-07T06:46:12.318Z,24.80
2022-08-07T06:48:42.162Z,24.90
2022-08-07T06:51:31.178Z,24.90
2022-08-07T06:55:27.860Z,24.90
2022-08-07T06:56:55.080Z,25.00
2022-08-07T07:00:13.245Z,25.10
2022-08-07T07:02:48.838Z,25.10
2022-08-07T07:05:13.025Z,25.20
2022-08-07T07:07:59.947Z,25.20
2022-08-07T07:10:34.710Z,25.20
2022-08-07T07:13:14.106Z,25.30
2022-08-07T07:15:51.448Z,25.30
2022-08-07T07:18:47.073Z,25.30
2022-08-07T07:21:27.010Z,25.30
2022-08-07T07:24:12.638Z,25.40
2022-08-07T07:26:52.080Z,25.90
2022-08-07T07:29:40.081Z,25.50
2022-08-07T07:32:12.193Z,25.60
2022-08-07T07:34:56.014Z,25.60
2022-08-07T07:37:49.528Z,25.70
2022-08-07T07:40:17.556Z,25.70
2022-08-07T07:42:50.869Z,25.70
2022-08-07T07:46:36.868Z,25.70
2022-08-07T07:48:34.779Z,25.80
2022-08-07T07:51:07.682Z,25.70
2022-08-07T07:53:48.132Z,25.80
2022-08-07T07:56:30.435Z,25.80
2022-08-07T07:59:01.983Z,25.80
2022-08-07T08:02:04.032Z,25.90
2022-08-07T08:04:25.715Z,25.90
2022-08-07T08:06:54.290Z,26.00
2022-08-07T08:09:29.673Z,26.00
2022-08-07T08:12:03.916Z,26.00
2022-08-07T08:14:35.994Z,26.00
2022-08-07T08:17:56.264Z,26.10
2022-08-07T08:20:17.682Z,26.20
2022-08-07T08:23:08.453Z,26.10
2022-08-07T08:25:57.916Z,26.20
2022-08-07T08:28:37.836Z,26.20
2022-08-07T08:31:14.799Z,26.30
2022-08-07T08:33:49.353Z,26.30
2022-08-07T08:36:25.588Z,26.40
2022-08-07T08:39:00.011Z,26.40
2022-08-07T08:41:57.919Z,26.40
2022-08-07T08:44:44.678Z,26.40
2022-08-07T08:47:54.756Z,26.40
2022-08-07T08:50:39.343Z,26.40
2022-08-07T08:53:19.308Z,26.40
2022-08-07T08:55:53.734Z,26.30
2022-08-07T08:58:45.794Z,26.30
2022-08-07T09:01:18.733Z,26.30
2022-08-07T09:03:52.834Z,26.20
2022-08-07T09:06:48.062Z,26.10
2022-08-07T09:09:57.043Z,26.10
2022-08-07T09:12:33.673Z,26.00
2022-08-07T09:16:20.586Z,26.00
2022-08-07T09:18:37.587Z,26.00
2022-08-07T09:21:58.055Z,26.00
2022-08-07T09:24:59.164Z,26.00
2022-08-07T09:27:59.628Z,26.00
2022-08-07T09:30:56.392Z,26.00
2022-08-07T09:34:00.943Z,26.00
2022-08-07T09:36:35.767Z,26.10
2022-08-07T09:39:54.533Z,26.10
2022-08-07T09:42:22.999Z,26.20
2022-08-07T09:47:25.741Z,26.30
2022-08-07T09:48:20.596Z,26.30
2022-08-07T09:52:15.933Z,26.30
2022-08-07T09:54:27.241Z,26.30
2022-08-07T09:57:32.832Z,26.30
2022-08-07T10:00:14.418Z,26.30
2022-08-07T10:03:08.068Z,26.30
2022-08-07T10:06:02.842Z,26.40
2022-08-07T10:09:09.852Z,26.40
2022-08-07T10:12:01.360Z,26.40
2022-08-07T10:14:58.228Z,26.40
2022-08-07T10:18:01.371Z,26.50
2022-08-07T10:20:54.722Z,26.50
2022-08-07T10:24:05.121Z,26.50
2022-08-07T10:26:51.801Z,26.60
2022-08-07T10:29:59.273Z,26.70
2022-08-07T10:33:14.851Z,26.80
2022-08-07T10:36:19.455Z,26.90
2022-08-07T10:39:42.139Z,27.00
2022-08-07T10:42:37.602Z,27.00
2022-08-07T10:45:48.079Z,27.00
2022-08-07T10:48:48.982Z,27.10
2022-08-07T10:51:39.304Z,27.20
2022-08-07T10:54:33.771Z,27.20
2022-08-07T10:57:34.648Z,27.30
2022-08-07T11:00:39.180Z,27.40
2022-08-07T11:03:11.027Z,26.90
2022-08-07T11:05:58.423Z,27.40
2022-08-07T11:08:46.608Z,27.40
2022-08-07T11:11:51.727Z,27.40
2022-08-07T11:14:59.807Z,27.40
2022-08-07T11:17:46.504Z,27.40
2022-08-07T11:20:42.751Z,27.40
2022-08-07T11:23:38.474Z,27.40
2022-08-07T11:26:18.802Z,27.40
2022-08-07T11:29:13.360Z,27.50
2022-08-07T11:32:40.391Z,27.90
2022-08-07T11:35:12.302Z,27.70
2022-08-07T11:38:09.978Z,27.70
2022-08-07T12:29:38.821Z,28.20
2022-08-07T12:41:49.565Z,28.20
2022-08-07T12:44:04.052Z,28.40
2022-08-07T12:46:53.845Z,28.30
2022-08-07T12:49:51.313Z,28.60
2022-08-07T12:52:33.926Z,28.70
2022-08-07T12:55:17.689Z,28.80
2022-08-07T12:58:01.221Z,28.90
2022-08-07T13:01:00.171Z,29.00
2022-08-07T13:04:00.546Z,29.30
2022-08-07T13:07:01.125Z,29.40
2022-08-07T13:10:19.401Z,29.60
2022-08-07T13:12:58.167Z,29.70
2022-08-07T13:15:37.801Z,29.80
2022-08-07T13:18:29.158Z,30.00
2022-08-07T13:21:51.153Z,30.00
2022-08-07T13:24:25.834Z,30.10
2022-08-07T13:27:10.657Z,30.10
2022-08-07T13:29:58.258Z,30.20
2022-08-07T13:33:02.840Z,30.20
2022-08-07T13:36:00.308Z,30.20
2022-08-07T13:38:38.102Z,30.10
2022-08-07T13:41:31.939Z,30.00
2022-08-07T13:44:05.194Z,30.00
2022-08-07T13:46:49.627Z,29.80
2022-08-07T13:50:34.857Z,29.80
2022-08-07T13:52:33.572Z,29.80
2022-08-07T13:54:59.044Z,29.70
2022-08-07T13:57:37.618Z,29.70
2022-08-07T14:00:26.362Z,29.60
2022-08-07T14:02:56.554Z,29.60
2022-08-07T14:05:24.932Z,29.90
2022-08-07T14:08:06.959Z,29.60
2022-08-07T14:10:41.781Z,29.50
2022-08-07T14:13:20.684Z,29.50
2022-08-07T14:16:06.020Z,29.50
2022-08-07T14:18:56.987Z,29.60
2022-08-07T14:22:03.543Z,29.60
2022-08-07T14:24:35.103Z,29.60
2022-08-07T14:28:09.921Z,29.70
2022-08-07T14:30:11.394Z,29.70
2022-08-07T14:32:45.986Z,29.80
2022-08-07T14:35:45.558Z,29.80
2022-08-07T14:38:26.721Z,29.90
2022-08-07T14:41:33.979Z,30.00
2022-08-07T14:44:16.247Z,30.00
2022-08-07T14:46:51.745Z,30.00
2022-08-07T14:49:56.860Z,30.10
2022-08-07T14:55:17.516Z,30.10
2022-08-07T14:57:58.615Z,30.10
2022-08-07T15:00:31.039Z,30.10
2022-08-07T15:06:04.014Z,30.00
2022-08-07T15:08:50.226Z,30.00
2022-08-07T15:11:53.316Z,30.00
2022-08-07T15:14:25.403Z,29.90
2022-08-07T15:17:01.437Z,29.90
2022-08-07T15:20:16.164Z,29.80
2022-08-07T15:22:33.626Z,29.80
2022-08-07T15:25:18.134Z,29.70
2022-08-07T15:28:07.893Z,29.70
2022-08-07T15:30:36.603Z,29.70
2022-08-07T15:33:33.408Z,29.60
2022-08-07T15:36:05.153Z,29.60
2022-08-07T15:38:59.675Z,29.50
2022-08-07T15:42:44.390Z,29.40
2022-08-07T15:44:20.816Z,29.40
2022-08-07T15:46:55.217Z,29.40
2022-08-07T15:50:04.396Z,29.40
2022-08-07T15:52:30.437Z,29.40
2022-08-07T15:55:02.281Z,29.50
2022-08-07T15:57:39.892Z,29.50
2022-08-07T16:00:32.157Z,29.50
2022-08-07T16:03:21.549Z,29.40
2022-08-07T16:05:52.612Z,29.40
2022-08-07T16:08:31.522Z,29.40
2022-08-07T16:11:28.679Z,29.40
2022-08-07T16:14:02.822Z,29.40
2022-08-07T16:16:48.078Z,29.40
2022-08-07T16:19:58.985Z,29.40
2022-08-07T16:22:57.996Z,29.30
2022-08-07T16:25:54.533Z,29.30
2022-08-07T16:29:18.237Z,29.20
2022-08-07T16:32:03.894Z,29.20
2022-08-07T16:34:48.394Z,29.20
2022-08-07T16:38:07.109Z,29.10
2022-08-07T16:40:30.645Z,29.00
2022-08-07T16:44:02.666Z,29.00
2022-08-07T16:47:08.776Z,28.90
2022-08-07T16:50:20.233Z,28.80
2022-08-07T16:53:20.653Z,28.80
2022-08-07T16:55:52.835Z,28.70
2022-08-07T16:59:10.898Z,28.80
2022-08-07T17:02:03.439Z,28.70
2022-08-07T17:05:01.385Z,28.60
2022-08-07T17:07:58.020Z,28.60
2022-08-07T17:10:30.370Z,28.60
2022-08-07T17:13:41.222Z,28.50
2022-08-07T17:16:39.380Z,28.50
2022-08-07T17:20:01.146Z,28.50
2022-08-07T17:22:37.652Z,28.40
2022-08-07T17:25:51.688Z,28.40
2022-08-07T17:28:20.029Z,28.30
2022-08-07T17:30:58.620Z,28.30
2022-08-07T17:34:09.336Z,28.30
2022-08-07T17:36:27.101Z,28.30
2022-08-07T17:39:21.907Z,28.30
2022-08-07T17:42:04.732Z,28.20
2022-08-07T17:44:54.687Z,28.20
2022-08-07T17:47:53.910Z,28.20
2022-08-07T17:50:32.992Z,28.20
2022-08-07T17:54:00.824Z,28.20
2022-08-07T17:56:29.087Z,28.20
2022-08-07T17:58:56.838Z,28.10
2022-08-07T18:01:37.284Z,28.10
2022-08-07T18:04:16.088Z,28.10
2022-08-07T18:07:20.120Z,28.10
2022-08-07T18:10:06.349Z,28.10
2022-08-07T18:13:09.952Z,28.10
2022-08-07T18:16:04.963Z,28.10
2022-08-07T18:21:01.537Z,28.10
2022-08-07T18:21:53.486Z,28.00
2022-08-07T18:24:53.778Z,28.00
2022-08-07T18:27:39.947Z,28.00
2022-08-07T18:30:32.438Z,28.00
2022-08-07T18:33:34.507Z,28.00
2022-08-07T18:36:36.408Z,28.00
2022-08-07T18:40:08.862Z,28.00
2022-08-07T18:42:56.924Z,27.90
2022-08-07T18:45:42.895Z,28.00
2022-08-07T18:50:18.860Z,27.90
2022-08-07T18:52:41.017Z,27.90
2022-08-07T18:54:58.763Z,27.80
2022-08-07T18:57:36.874Z,27.80
2022-08-07T19:00:34.137Z,27.80
2022-08-07T19:03:02.253Z,27.90
2022-08-07T19:06:01.901Z,27.80
2022-08-07T19:08:34.169Z,27.90
2022-08-07T19:11:34.938Z,27.80
2022-08-07T19:14:11.571Z,27.90
2022-08-07T19:17:06.723Z,27.80
2022-08-07T19:19:54.105Z,27.80
2022-08-07T19:22:54.542Z,27.80
2022-08-07T19:26:23.813Z,27.80
2022-08-07T19:30:56.703Z,27.80
2022-08-07T19:31:57.756Z,27.80
2022-08-07T19:34:34.441Z,27.70
2022-08-07T19:37:17.541Z,27.70
2022-08-07T19:39:57.615Z,27.70
2022-08-07T19:42:31.704Z,27.70
2022-08-07T19:45:12.792Z,27.70
2022-08-07T19:48:03.951Z,27.60
2022-08-07T19:50:53.047Z,27.70
2022-08-07T19:54:31.492Z,27.60
2022-08-07T19:57:52.432Z,27.70
2022-08-07T19:59:06.951Z,27.60
2022-08-07T20:01:56.066Z,27.60
2022-08-07T20:04:31.269Z,27.60
2022-08-07T20:07:00.442Z,27.60
2022-08-07T20:10:36.615Z,27.60
2022-08-07T20:12:32.290Z,27.60
2022-08-07T20:15:15.697Z,27.60
2022-08-07T20:18:01.793Z,27.60
2022-08-07T20:20:33.714Z,27.50
2022-08-07T20:23:10.983Z,27.50
2022-08-07T20:25:56.563Z,27.60
2022-08-07T20:28:29.962Z,27.50
2022-08-07T20:30:59.149Z,27.50
2022-08-07T20:33:37.882Z,27.50
2022-08-07T20:36:06.699Z,27.50
2022-08-07T20:38:36.021Z,27.50
2022-08-07T20:41:34.312Z,27.40
2022-08-07T20:44:12.376Z,27.40
2022-08-07T20:46:43.786Z,27.40
2022-08-07T20:49:59.987Z,27.40
2022-08-07T20:52:06.649Z,27.40
2022-08-07T20:54:53.724Z,27.40
2022-08-07T20:57:28.317Z,27.30
2022-08-07T21:00:09.470Z,27.30
2022-08-07T21:02:58.542Z,27.30
2022-08-07T21:05:54.516Z,27.30
2022-08-07T21:08:46.715Z,27.30
2022-08-07T21:11:18.043Z,27.30
2022-08-07T21:14:16.821Z,27.20
2022-08-07T21:16:56.048Z,27.20
2022-08-07T21:19:51.743Z,27.20
2022-08-07T21:22:20.180Z,27.20
2022-08-07T21:25:42.537Z,27.20
2022-08-07T21:28:49.434Z,27.20
2022-08-07T21:32:42.377Z,27.20
2022-08-07T21:34:54.685Z,27.10
2022-08-07T21:37:57.431Z,27.10
2022-08-07T21:40:44.291Z,27.10
2022-08-07T21:43:16.511Z,27.10
2022-08-07T21:46:08.469Z,27.10
2022-08-07T21:48:59.287Z,27.10
2022-08-07T21:51:32.302Z,27.10
2022-08-07T21:54:09.181Z,27.10
2022-08-07T21:56:50.621Z,27.10
2022-08-07T22:00:02.804Z,27.10
2022-08-07T22:02:25.818Z,27.10
2022-08-07T22:04:58.138Z,27.10
2022-08-07T22:07:35.768Z,27.10
2022-08-07T22:10:20.088Z,27.10
2022-08-07T22:12:59.839Z,27.10
2022-08-07T22:16:42.501Z,27.00
2022-08-07T22:19:04.949Z,27.00
2022-08-07T22:22:02.652Z,27.00
2022-08-07T22:25:05.627Z,27.00
2022-08-07T22:28:19.830Z,27.00
2022-08-07T22:31:06.811Z,27.00
2022-08-07T22:33:56.002Z,27.00
2022-08-07T22:36:38.409Z,26.90
2022-08-07T22:39:15.581Z,27.00
2022-08-07T22:42:03.448Z,26.90
2022-08-07T22:44:41.478Z,27.00
2022-08-07T22:48:13.581Z,26.90
2022-08-07T22:51:04.259Z,26.90
2022-08-07T22:54:08.171Z,26.90
2022-08-07T22:56:38.971Z,26.90
2022-08-07T22:59:15.090Z,26.80
2022-08-07T23:02:00.492Z,26.80
2022-08-07T23:04:56.990Z,26.80
2022-08-07T23:07:58.843Z,26.80
2022-08-07T23:10:57.220Z,26.80
2022-08-07T23:14:15.297Z,26.80
2022-08-07T23:17:20.448Z,26.80
2022-08-07T23:20:18.540Z,26.80
2022-08-07T23:23:02.030Z,26.80
2022-08-07T23:26:09.485Z,26.80
2022-08-07T23:29:16.830Z,26.80
2022-08-07T23:34:18.652Z,26.70
2022-08-07T23:35:43.409Z,26.70
2022-08-07T23:38:36.913Z,26.70
2022-08-07T23:41:33.410Z,26.70
2022-08-07T23:44:03.735Z,26.70
2022-08-07T23:46:57.736Z,26.70
2022-08-07T23:50:01.935Z,26.70
2022-08-07T23:53:16.847Z,26.70
2022-08-07T23:55:55.449Z,26.60
2022-08-07T23:58:56.795Z,26.70
